メインページ
METAR-TAF:

METAR-TAF

空港 :

タワウ空港

タワウ, マレーシア

緯度: 04-16N, 経度: 117-53E, 海抜: 18m

現時点の気象観測

当レポートは28分前の13:00(UTC)に作成
無風
気温 27°C
湿度 94%
気圧 1011 hPa
視程10km以上
高度1700ftの雲はほとんどない

METAR: WBKW 201300Z 00000KT 9999 FEW017 27/26 Q1011

時間: 21:28 (13:28 UTC)

予報

当レポートは2時間28分前の11:00(UTC)に作成
予報は20日の 12時(UTC)から 21日の 12時(UTC)まで有効
北西の風 6kt
視程10km以上
高度1600ftの雲はほとんどない
21日の 00時(UTC)から 21日の 02時(UTC)まで徐々に
南/南東の風 6kt

TAF: WBKW 201100Z 2012/2112 31006KT 9999 FEW016 BECMG 2100/2102 15006KT

4,000以上の空港の気象観測と天気予報(METAR報とTAF報)

利用可能な観測所は地図上に黄色い丸と赤い丸で示す。

丸の上にカーソルを重ねると観測所名を参照できる。

次にクリックすると気象観測と天気予報を参照できる。

マップの切り替え:黒色「×」印の緑ボタンをクリックして拡大、「-」印の緑ボタンをクリックして縮小、緑色の三角印をクリックして隣りの地図に切り替え


METAR-TAF: